createdAt,value
2022-10-07T00:02:12.038Z,100636.29
2022-10-07T00:04:45.159Z,100636.17
2022-10-07T00:07:12.866Z,100639.75
2022-10-07T00:09:39.576Z,100640.18
2022-10-07T00:12:06.697Z,100642.25
2022-10-07T00:14:33.504Z,100640.14
2022-10-07T00:17:00.279Z,100641.69
2022-10-07T00:19:27.052Z,100642.30
2022-10-07T00:21:53.786Z,100643.39
2022-10-07T00:24:20.581Z,100645.13
2022-10-07T00:26:47.294Z,100647.72
2022-10-07T00:29:14.240Z,100648.73
2022-10-07T00:31:41.870Z,100648.48
2022-10-07T00:34:09.804Z,100652.38
2022-10-07T00:36:37.564Z,100653.16
2022-10-07T00:39:10.181Z,100650.75
2022-10-07T00:41:40.915Z,100650.69
2022-10-07T00:44:29.475Z,100654.77
2022-10-07T00:46:56.263Z,100657.67
2022-10-07T00:49:23.050Z,100660.56
2022-10-07T00:51:51.899Z,100665.09
2022-10-07T00:54:18.707Z,100669.55
2022-10-07T00:56:45.405Z,100668.66
2022-10-07T00:59:12.315Z,100666.14
2022-10-07T01:01:42.213Z,100671.24
2022-10-07T01:04:10.442Z,100671.65
2022-10-07T01:06:39.297Z,100676.83
2022-10-07T01:09:06.534Z,100677.75
2022-10-07T01:11:39.387Z,100679.61
2022-10-07T01:14:55.775Z,100678.85
2022-10-07T01:17:39.513Z,100681.48
2022-10-07T01:20:16.251Z,100680.75
2022-10-07T01:22:45.602Z,100685.63
2022-10-07T01:25:20.888Z,100689.95
2022-10-07T01:27:50.940Z,100695.56
2022-10-07T01:30:18.169Z,100695.37
2022-10-07T01:32:56.755Z,100693.81
2022-10-07T01:35:25.194Z,100697.98
2022-10-07T01:37:55.383Z,100701.10
2022-10-07T01:40:27.438Z,100700.33
2022-10-07T01:42:54.750Z,100697.24
2022-10-07T01:45:22.277Z,100699.16
2022-10-07T01:47:49.172Z,100699.39
2022-10-07T01:50:16.545Z,100696.77
2022-10-07T01:53:15.497Z,100697.36
2022-10-07T01:55:57.777Z,100699.57
2022-10-07T01:58:48.265Z,100704.75
2022-10-07T02:01:19.383Z,100711.08
2022-10-07T02:04:07.533Z,100714.55
2022-10-07T02:06:51.283Z,100715.88
2022-10-07T02:09:34.023Z,100723.52
2022-10-07T02:12:21.563Z,100729.33
2022-10-07T02:14:54.933Z,100730.23
2022-10-07T02:17:23.516Z,100735.05
2022-10-07T02:19:53.478Z,100739.19
2022-10-07T02:22:22.171Z,100740.33
2022-10-07T02:24:49.331Z,100743.80
2022-10-07T02:27:20.141Z,100741.42
2022-10-07T02:29:49.943Z,100748.98
2022-10-07T02:32:19.901Z,100752.17
2022-10-07T02:34:49.030Z,100756.55
2022-10-07T02:37:20.480Z,100758.20
2022-10-07T02:39:47.512Z,100761.44
2022-10-07T02:42:38.207Z,100765.30
2022-10-07T02:45:08.173Z,100770.77
2022-10-07T02:47:39.408Z,100771.16
2022-10-07T02:50:07.905Z,100771.54
2022-10-07T02:52:34.580Z,100775.17
2022-10-07T02:55:06.171Z,100771.80
2022-10-07T02:57:35.411Z,100776.74
2022-10-07T03:00:04.287Z,100779.65
2022-10-07T03:02:56.264Z,100784.69
2022-10-07T03:05:26.488Z,100790.15
2022-10-07T03:08:07.227Z,100788.00
2022-10-07T03:10:34.360Z,100787.33
2022-10-07T03:13:05.101Z,100786.02
2022-10-07T03:15:39.750Z,100788.40
2022-10-07T03:18:26.423Z,100792.32
2022-10-07T03:20:55.868Z,100796.20
2022-10-07T03:23:26.475Z,100796.04
2022-10-07T03:25:54.188Z,100799.23
2022-10-07T03:28:22.371Z,100801.03
2022-10-07T03:30:49.256Z,100803.97
2022-10-07T03:33:16.602Z,100803.95
2022-10-07T03:35:43.367Z,100801.88
2022-10-07T03:38:10.678Z,100807.02
2022-10-07T03:40:38.346Z,100804.27
2022-10-07T03:43:06.044Z,100800.41
2022-10-07T03:45:32.782Z,100801.04
2022-10-07T03:47:59.763Z,100806.91
2022-10-07T03:50:26.503Z,100808.95
2022-10-07T03:52:53.318Z,100810.33
2022-10-07T03:55:20.085Z,100813.85
2022-10-07T03:57:59.746Z,100817.96
2022-10-07T04:00:27.662Z,100821.79
2022-10-07T04:02:54.771Z,100823.36
2022-10-07T04:05:21.602Z,100824.85
2022-10-07T04:07:49.383Z,100828.64
2022-10-07T04:10:17.518Z,100833.30
2022-10-07T04:12:44.576Z,100833.24
2022-10-07T04:15:14.618Z,100836.87
2022-10-07T04:17:43.311Z,100838.73
2022-10-07T04:20:10.679Z,100841.30
2022-10-07T04:22:38.028Z,100839.47
2022-10-07T04:25:24.419Z,100838.75
2022-10-07T04:27:54.819Z,100843.36
2022-10-07T04:30:23.090Z,100843.38
2022-10-07T04:32:50.576Z,100839.60
2022-10-07T04:35:21.563Z,100841.89
2022-10-07T04:37:49.972Z,100845.16
2022-10-07T04:40:17.142Z,100847.77
2022-10-07T04:43:02.686Z,100851.02
2022-10-07T04:45:29.405Z,100856.96
2022-10-07T04:47:56.216Z,100856.17
2022-10-07T04:50:23.247Z,100855.95
2022-10-07T04:52:49.940Z,100856.38
2022-10-07T04:55:16.949Z,100858.37
2022-10-07T04:57:44.874Z,100856.68
2022-10-07T05:00:13.305Z,100861.99
2022-10-07T05:02:40.398Z,100865.13
2022-10-07T05:05:07.621Z,100865.61
2022-10-07T05:07:34.591Z,100868.16
2022-10-07T05:10:01.872Z,100870.02
2022-10-07T05:12:29.841Z,100865.98
2022-10-07T05:14:57.171Z,100869.13
2022-10-07T05:17:24.733Z,100871.23
2022-10-07T05:19:51.532Z,100873.16
2022-10-07T05:22:18.397Z,100873.11
2022-10-07T05:24:45.047Z,100875.66
2022-10-07T05:27:13.469Z,100878.06
2022-10-07T05:29:40.371Z,100878.55
2022-10-07T05:32:07.229Z,100880.95
2022-10-07T05:34:34.053Z,100883.91
2022-10-07T05:37:01.331Z,100889.48
2022-10-07T05:39:28.071Z,100891.20
2022-10-07T05:41:58.923Z,100896.18
2022-10-07T05:44:32.179Z,100899.71
2022-10-07T05:46:59.365Z,100898.10
2022-10-07T05:49:27.832Z,100907.48
2022-10-07T05:51:55.637Z,100908.40
2022-10-07T05:54:22.771Z,100908.37
2022-10-07T05:56:49.518Z,100905.20
2022-10-07T05:59:17.059Z,100909.14
2022-10-07T06:01:44.229Z,100907.42
2022-10-07T06:04:15.032Z,100913.89
2022-10-07T06:06:44.018Z,100915.89
2022-10-07T06:09:30.194Z,100914.79
2022-10-07T06:12:15.875Z,100914.64
2022-10-07T06:14:43.079Z,100919.70
2022-10-07T06:17:10.091Z,100925.79
2022-10-07T06:19:37.745Z,100926.44
2022-10-07T06:22:04.754Z,100926.57
2022-10-07T06:24:33.815Z,100930.98
2022-10-07T06:27:01.078Z,100931.23
2022-10-07T06:29:28.668Z,100935.88
2022-10-07T06:31:55.400Z,100936.94
2022-10-07T06:34:22.109Z,100939.63
2022-10-07T06:36:48.762Z,100937.72
2022-10-07T06:39:16.699Z,100939.81
2022-10-07T06:41:43.528Z,100937.20
2022-10-07T06:44:39.780Z,100935.85
2022-10-07T06:47:11.708Z,100937.04
2022-10-07T06:49:39.440Z,100936.80
2022-10-07T06:52:06.744Z,100941.18
2022-10-07T06:54:34.653Z,100948.42
2022-10-07T06:57:01.473Z,100946.35
2022-10-07T06:59:28.547Z,100948.60
2022-10-07T07:02:00.623Z,100944.98
2022-10-07T07:04:28.243Z,100946.40
2022-10-07T07:06:55.035Z,100948.36
2022-10-07T07:09:22.867Z,100949.94
2022-10-07T07:11:52.935Z,100951.22
2022-10-07T07:14:25.922Z,100948.46
2022-10-07T07:17:00.553Z,100948.89
2022-10-07T07:19:27.497Z,100947.36
2022-10-07T07:21:54.451Z,100943.87
2022-10-07T07:24:22.061Z,100945.07
2022-10-07T07:26:48.832Z,100943.54
2022-10-07T07:29:16.587Z,100942.66
2022-10-07T07:32:00.002Z,100940.02
2022-10-07T07:34:30.211Z,100939.49
2022-10-07T07:36:57.315Z,100940.73
2022-10-07T07:39:27.865Z,100932.64
2022-10-07T07:42:00.601Z,100935.55
2022-10-07T07:44:33.973Z,100930.98
2022-10-07T07:47:02.315Z,100932.42
2022-10-07T07:49:31.968Z,100930.32
2022-10-07T07:51:59.248Z,100930.92
2022-10-07T07:54:29.499Z,100928.42
2022-10-07T07:56:56.745Z,100927.02
2022-10-07T07:59:25.220Z,100927.28
2022-10-07T08:01:52.103Z,100927.73
2022-10-07T08:04:18.822Z,100927.66
2022-10-07T08:06:45.537Z,100926.19
2022-10-07T08:09:13.085Z,100925.46
2022-10-07T08:11:42.447Z,100925.77
2022-10-07T08:14:09.201Z,100925.29
2022-10-07T08:16:37.072Z,100925.90
2022-10-07T08:19:04.418Z,100926.33
2022-10-07T08:21:34.186Z,100925.49
2022-10-07T08:24:02.802Z,100929.30
2022-10-07T08:26:32.852Z,100928.48
2022-10-07T08:29:01.475Z,100929.46
2022-10-07T08:31:28.571Z,100928.98
2022-10-07T08:33:56.859Z,100927.10
2022-10-07T08:36:24.271Z,100921.69
2022-10-07T08:38:51.135Z,100922.34
2022-10-07T08:41:37.187Z,100923.89
2022-10-07T08:44:19.263Z,100921.61
2022-10-07T08:47:08.775Z,100924.02
2022-10-07T08:49:53.913Z,100926.58
2022-10-07T08:52:32.781Z,100928.92
2022-10-07T08:55:01.356Z,100927.46
2022-10-07T08:58:08.522Z,100928.48
2022-10-07T09:00:54.226Z,100925.58
2022-10-07T09:03:35.825Z,100922.31
2022-10-07T09:06:04.892Z,100921.65
2022-10-07T09:08:33.698Z,100912.91
2022-10-07T09:11:51.577Z,100909.10
2022-10-07T09:14:29.191Z,100908.70
2022-10-07T09:16:58.694Z,100907.75
2022-10-07T09:19:58.277Z,100905.55
2022-10-07T09:22:32.408Z,100907.09
2022-10-07T09:25:15.586Z,100910.94
2022-10-07T09:27:42.605Z,100905.80
2022-10-07T09:30:12.337Z,100904.24
2022-10-07T09:32:40.764Z,100908.46
2022-10-07T09:35:30.041Z,100912.96
2022-10-07T09:37:56.743Z,100911.69
2022-10-07T09:41:02.589Z,100913.64
2022-10-07T09:43:32.601Z,100912.86
2022-10-07T09:45:59.574Z,100914.23
2022-10-07T09:48:28.285Z,100907.53
2022-10-07T09:51:15.451Z,100906.84
2022-10-07T09:54:00.077Z,100902.29
2022-10-07T09:56:34.864Z,100902.02
2022-10-07T09:59:23.954Z,100896.84
2022-10-07T10:02:01.028Z,100897.16
2022-10-07T10:04:32.690Z,100886.36
2022-10-07T10:07:05.926Z,100882.75
2022-10-07T10:09:32.858Z,100877.42
2022-10-07T10:12:15.002Z,100875.98
2022-10-07T10:14:47.896Z,100872.81
2022-10-07T10:17:29.932Z,100869.31
2022-10-07T10:20:16.997Z,100871.46
2022-10-07T10:22:44.000Z,100860.23
2022-10-07T10:25:29.813Z,100863.09
2022-10-07T10:28:22.100Z,100856.99
2022-10-07T10:30:57.351Z,100861.70
2022-10-07T10:33:32.341Z,100854.80
2022-10-07T10:36:07.060Z,100852.52
2022-10-07T10:38:37.610Z,100852.41
2022-10-07T10:41:20.010Z,100849.20
2022-10-07T10:44:05.886Z,100848.24
2022-10-07T10:46:57.379Z,100844.41
2022-10-07T10:49:30.377Z,100843.83
2022-10-07T10:52:08.701Z,100845.67
2022-10-07T10:55:01.248Z,100838.74
2022-10-07T10:57:46.343Z,100835.86
2022-10-07T11:00:15.131Z,100835.27
2022-10-07T11:03:00.715Z,100835.41
2022-10-07T11:05:37.040Z,100831.67
2022-10-07T11:08:07.768Z,100829.38
2022-10-07T11:10:54.409Z,100826.09
2022-10-07T11:13:58.030Z,100826.23
2022-10-07T11:16:42.461Z,100826.67
2022-10-07T13:38:22.196Z,100732.09
2022-10-07T13:41:18.393Z,100735.30
2022-10-07T13:43:45.699Z,100728.98
2022-10-07T13:46:13.768Z,100729.34
2022-10-07T13:48:45.361Z,100730.74
2022-10-07T13:51:25.478Z,100733.45
2022-10-07T13:53:54.198Z,100734.52
2022-10-07T13:56:37.280Z,100732.92
2022-10-07T13:59:03.939Z,100733.19
2022-10-07T14:01:31.641Z,100736.27
2022-10-07T14:04:14.446Z,100733.73
2022-10-07T14:07:09.302Z,100729.45
2022-10-07T14:09:35.942Z,100730.21
2022-10-07T14:12:11.067Z,100723.81
2022-10-07T14:14:51.504Z,100721.50
2022-10-07T14:17:25.721Z,100719.71
2022-10-07T14:19:56.181Z,100719.31
2022-10-07T14:22:41.208Z,100721.98
2022-10-07T14:25:20.059Z,100719.16
2022-10-07T14:27:46.540Z,100720.56
2022-10-07T14:30:25.540Z,100714.45
2022-10-07T14:33:24.498Z,100716.77
2022-10-07T14:36:11.335Z,100714.95
2022-10-07T14:38:37.995Z,100716.94
2022-10-07T14:41:04.438Z,100718.02
2022-10-07T14:43:31.274Z,100713.66
2022-10-07T14:45:57.755Z,100716.08
2022-10-07T14:48:24.203Z,100719.77
2022-10-07T14:50:51.136Z,100724.55
2022-10-07T14:53:18.371Z,100727.18
2022-10-07T14:55:44.763Z,100727.98
2022-10-07T14:58:11.486Z,100728.63
2022-10-07T15:00:39.805Z,100729.05
2022-10-07T15:03:06.445Z,100731.33
2022-10-07T15:05:33.260Z,100735.01
2022-10-07T15:08:00.691Z,100740.83
2022-10-07T15:10:27.859Z,100742.03
2022-10-07T15:12:55.282Z,100742.52
2022-10-07T15:15:24.942Z,100735.84
2022-10-07T15:17:51.285Z,100738.02
2022-10-07T15:20:17.758Z,100740.41
2022-10-07T15:22:44.999Z,100741.58
2022-10-07T15:25:11.957Z,100740.25
2022-10-07T15:27:39.319Z,100741.55
2022-10-07T15:30:06.561Z,100743.38
2022-10-07T15:32:34.394Z,100743.65
2022-10-07T15:35:01.071Z,100740.56
2022-10-07T15:37:27.610Z,100743.67
2022-10-07T15:39:54.277Z,100746.41
2022-10-07T15:42:22.421Z,100744.34
2022-10-07T15:44:49.466Z,100743.05
2022-10-07T15:47:16.318Z,100742.72
2022-10-07T15:49:43.078Z,100747.73
2022-10-07T15:52:10.905Z,100750.12
2022-10-07T15:54:37.819Z,100751.27
2022-10-07T15:57:04.288Z,100747.88
2022-10-07T15:59:31.480Z,100754.10
2022-10-07T16:01:58.505Z,100753.84
2022-10-07T16:04:25.132Z,100756.65
2022-10-07T16:06:52.224Z,100757.23
2022-10-07T16:09:21.201Z,100754.05
2022-10-07T16:11:47.960Z,100754.69
2022-10-07T16:14:20.609Z,100754.95
2022-10-07T16:16:50.711Z,100759.13
2022-10-07T16:19:17.394Z,100758.58
2022-10-07T16:21:44.649Z,100761.20
2022-10-07T16:24:15.103Z,100764.95
2022-10-07T16:26:41.972Z,100759.08
2022-10-07T16:29:31.736Z,100758.23
2022-10-07T16:31:59.466Z,100759.48
2022-10-07T16:34:27.229Z,100761.77
2022-10-07T16:36:54.017Z,100759.46
2022-10-07T16:39:21.241Z,100756.59
2022-10-07T16:41:48.701Z,100756.54
2022-10-07T16:44:18.582Z,100753.71
2022-10-07T16:46:45.445Z,100758.70
2022-10-07T16:49:16.403Z,100756.19
2022-10-07T16:51:44.053Z,100757.58
2022-10-07T16:54:13.093Z,100754.99
2022-10-07T16:56:40.622Z,100759.33
2022-10-07T16:59:09.109Z,100756.54
2022-10-07T17:01:37.206Z,100756.95
2022-10-07T17:04:03.903Z,100754.61
2022-10-07T17:06:31.596Z,100750.30
2022-10-07T17:09:03.720Z,100746.88
2022-10-07T17:11:34.461Z,100748.54
2022-10-07T17:14:17.341Z,100749.36
2022-10-07T17:16:54.553Z,100749.67
2022-10-07T17:19:22.498Z,100750.50
2022-10-07T17:21:49.172Z,100751.39
2022-10-07T17:24:16.404Z,100751.67
2022-10-07T17:26:44.087Z,100750.86
2022-10-07T17:29:11.371Z,100748.45
2022-10-07T17:31:39.372Z,100748.23
2022-10-07T17:34:07.106Z,100750.17
2022-10-07T17:36:34.143Z,100748.77
2022-10-07T17:39:00.807Z,100748.13
2022-10-07T17:41:31.031Z,100748.06
2022-10-07T17:43:58.723Z,100746.58
2022-10-07T17:46:26.916Z,100744.77
2022-10-07T17:48:55.138Z,100743.70
2022-10-07T17:51:23.706Z,100742.10
2022-10-07T17:53:50.487Z,100747.12
2022-10-07T17:56:17.187Z,100746.84
2022-10-07T17:58:44.119Z,100744.94
2022-10-07T18:01:26.558Z,100747.20
2022-10-07T18:03:57.547Z,100745.40
2022-10-07T18:06:30.411Z,100741.98
2022-10-07T18:09:02.309Z,100743.05
2022-10-07T18:11:50.984Z,100747.61
2022-10-07T18:14:36.228Z,100746.04
2022-10-07T18:17:03.276Z,100743.21
2022-10-07T18:19:29.862Z,100744.89
2022-10-07T18:21:56.434Z,100742.61
2022-10-07T18:24:27.075Z,100739.10
2022-10-07T18:26:59.748Z,100739.65
2022-10-07T18:29:32.831Z,100738.17
2022-10-07T18:31:59.560Z,100742.02
2022-10-07T18:34:26.324Z,100740.95
2022-10-07T18:36:56.680Z,100742.36
2022-10-07T18:39:27.178Z,100747.23
2022-10-07T18:41:53.716Z,100748.12
2022-10-07T18:44:20.290Z,100750.76
2022-10-07T18:46:47.925Z,100748.96
2022-10-07T18:49:15.065Z,100751.39
2022-10-07T18:51:41.503Z,100753.16
2022-10-07T18:54:09.115Z,100754.43
2022-10-07T18:56:40.796Z,100757.23
2022-10-07T18:59:08.267Z,100757.41
2022-10-07T19:01:35.860Z,100759.63
2022-10-07T19:04:02.994Z,100759.00
2022-10-07T19:06:31.022Z,100757.29
2022-10-07T19:08:59.239Z,100759.52
2022-10-07T19:11:29.790Z,100757.89
2022-10-07T19:13:58.442Z,100756.10
2022-10-07T19:16:35.889Z,100760.46
2022-10-07T19:19:14.869Z,100756.56
2022-10-07T19:21:42.748Z,100755.52
2022-10-07T19:24:09.448Z,100752.63
2022-10-07T19:26:38.499Z,100757.06
2022-10-07T19:29:05.738Z,100758.32
2022-10-07T19:31:36.180Z,100757.91
2022-10-07T19:34:07.307Z,100762.80
2022-10-07T19:36:35.600Z,100764.92
2022-10-07T19:39:06.208Z,100766.17
2022-10-07T19:41:33.247Z,100764.02
2022-10-07T19:44:00.206Z,100759.71
2022-10-07T19:46:27.668Z,100761.00
2022-10-07T19:48:56.299Z,100760.38
2022-10-07T19:51:23.381Z,100761.59
2022-10-07T19:53:50.429Z,100762.59
2022-10-07T19:56:27.615Z,100758.27
2022-10-07T19:58:59.640Z,100753.06
2022-10-07T20:01:29.038Z,100751.49
2022-10-07T20:04:03.523Z,100753.90
2022-10-07T20:06:30.675Z,100752.54
2022-10-07T20:08:57.963Z,100757.75
2022-10-07T20:11:24.839Z,100756.91
2022-10-07T20:13:53.608Z,100755.91
2022-10-07T20:16:21.857Z,100756.20
2022-10-07T20:18:50.564Z,100756.73
2022-10-07T20:21:21.471Z,100757.48
2022-10-07T20:23:48.119Z,100758.88
2022-10-07T20:26:18.036Z,100761.17
2022-10-07T20:28:45.374Z,100758.04
2022-10-07T20:31:12.231Z,100763.77
2022-10-07T20:33:39.755Z,100762.79
2022-10-07T20:36:06.454Z,100761.19
2022-10-07T20:38:52.896Z,100760.86
2022-10-07T20:41:38.058Z,100763.45
2022-10-07T20:44:04.561Z,100763.94
2022-10-07T20:46:33.424Z,100764.58
2022-10-07T20:49:00.299Z,100760.48
2022-10-07T20:51:27.328Z,100765.55
2022-10-07T20:53:53.709Z,100767.13
2022-10-07T20:56:20.294Z,100766.45
2022-10-07T20:58:46.750Z,100768.38
2022-10-07T21:01:13.512Z,100763.64
2022-10-07T21:03:40.548Z,100765.86
2022-10-07T21:06:07.336Z,100765.86
2022-10-07T21:08:33.938Z,100765.81
2022-10-07T21:11:04.733Z,100757.63
2022-10-07T21:13:31.632Z,100759.05
2022-10-07T21:16:01.802Z,100758.79
2022-10-07T21:18:29.155Z,100754.07
2022-10-07T21:20:57.006Z,100756.82
2022-10-07T21:23:24.181Z,100751.95
2022-10-07T21:25:51.210Z,100750.38
2022-10-07T21:28:18.483Z,100752.00
2022-10-07T21:30:53.986Z,100755.46
2022-10-07T21:33:20.724Z,100748.77
2022-10-07T21:35:47.836Z,100750.14
2022-10-07T21:38:14.472Z,100744.93
2022-10-07T21:40:40.918Z,100750.55
2022-10-07T21:43:08.125Z,100747.16
2022-10-07T21:45:34.751Z,100746.78
2022-10-07T21:48:03.009Z,100737.96
2022-10-07T21:50:29.664Z,100742.66
2022-10-07T21:52:56.068Z,100737.77
2022-10-07T21:55:22.780Z,100736.09
2022-10-07T21:57:49.277Z,100737.92
2022-10-07T22:00:16.100Z,100734.81
2022-10-07T22:02:43.035Z,100734.85
2022-10-07T22:05:10.932Z,100739.52
2022-10-07T22:07:55.857Z,100735.77
2022-10-07T22:10:22.404Z,100733.52
2022-10-07T22:12:53.070Z,100735.52
2022-10-07T22:15:19.814Z,100731.92
2022-10-07T22:17:46.870Z,100730.33
2022-10-07T22:20:13.406Z,100725.61
2022-10-07T22:22:40.383Z,100725.65
2022-10-07T22:25:07.674Z,100724.98
2022-10-07T22:27:34.129Z,100723.69
2022-10-07T22:30:00.719Z,100724.20
2022-10-07T22:32:27.571Z,100725.41
2022-10-07T22:35:12.682Z,100720.33
2022-10-07T22:37:40.232Z,100721.20
2022-10-07T22:40:07.312Z,100719.77
2022-10-07T22:42:35.430Z,100712.12
2022-10-07T22:45:02.035Z,100719.04
2022-10-07T22:47:28.896Z,100719.08
2022-10-07T22:49:55.350Z,100716.83
2022-10-07T22:52:21.775Z,100713.67
2022-10-07T22:54:48.241Z,100711.72
2022-10-07T22:57:14.666Z,100713.96
2022-10-07T22:59:41.100Z,100714.11
2022-10-07T23:02:09.022Z,100708.62
2022-10-07T23:04:36.960Z,100702.64
2022-10-07T23:07:04.009Z,100702.35
2022-10-07T23:09:30.780Z,100700.96
2022-10-07T23:11:58.603Z,100696.76
2022-10-07T23:14:25.372Z,100700.24
2022-10-07T23:16:51.859Z,100701.46
2022-10-07T23:19:18.494Z,100698.25
2022-10-07T23:21:45.035Z,100694.73
2022-10-07T23:24:13.151Z,100692.48
2022-10-07T23:26:40.217Z,100688.98
2022-10-07T23:29:06.993Z,100687.27
2022-10-07T23:31:34.123Z,100689.46
2022-10-07T23:34:01.314Z,100686.54
2022-10-07T23:36:28.292Z,100687.04
2022-10-07T23:38:55.440Z,100682.05
2022-10-07T23:41:23.200Z,100681.87
2022-10-07T23:43:54.491Z,100679.27
2022-10-07T23:46:21.955Z,100673.89
2022-10-07T23:48:48.785Z,100670.73
2022-10-07T23:51:18.080Z,100669.30
2022-10-07T23:53:50.499Z,100666.08
2022-10-07T23:56:19.139Z,100665.76
2022-10-07T23:58:45.624Z,100666.80
